Terminal Aerodrome Forecast
Issued by NWS Albany, NY

Current Version | Previous Version | Text Only | Print | Product List | Glossary On
Versions: 1 2 3 4 5 6 7 8 9 10 11 12 13 14 15
152 FTUS41 KALY 170538 TAFALB TAF KALB 170538Z 1706/1806 00000KT P6SM FEW250 FM170900 00000KT P6SM MIFG SKC FM171200 VRB06KT P6SM SKC FM180000 VRB03KT P6SM SCT050=

USA.gov is the U.S. government's official web portal to all federal, state and local government web resources and services.